Impacts METAR Board
IDs:

KSFO - San Francisco Intl, CA, US

Updated at: 0300 UTC 22 Jun 2018
Potential Impact None Slight Moderate High
Time 21/15Z 21/16Z 21/17Z 21/18Z 21/19Z 21/20Z 21/21Z 21/22Z 21/23Z 22/00Z 22/01Z 22/02Z 22/03Z
Temp55 59 60 62 64 66 68 66 67 66 65 63 61
Dewpt48 49 49 49 49 50 50 50 50 49 50 50 50
Altim30.03 30.04 30.03 30.04 30.03 30.02 30.00 30.00 29.98 29.97 29.96 29.96 29.96
VIS10 10 10 10 10 10 10 10 10 10 10 10 10
CIG11 11 -- -- -- -- -- -- -- -- -- -- --
CoverBKNBKNSCTFEWFEWFEWFEWFEWCLRFEWFEWFEWFEW
FltCatMVFRMVFRVFRVFRVFRVFRVFRVFRVFRVFRVFRVFRVFR
WX--------------------------
WDir260270290300280290300290290280280280290
WSpd9 8 12 15 17 17 17 22 23 25 23 21 15
WGst18 -- -- -- -- -- -- -- -- 31 -- -- --
Raw hourly METARs
KSFO 211456Z 26009G18KT 10SM FEW006 SCT008 BKN011 13/09 A3003 RMK AO2 SLP169 T01280089 51007
KSFO 211556Z 27008KT 10SM SCT008 BKN011 15/09 A3004 RMK AO2 SLP173 T01500094
KSFO 211656Z 29012KT 10SM FEW007 SCT011 16/09 A3003 RMK AO2 SLP170 T01560094
KSFO 211756Z 30015KT 10SM FEW008 FEW013 17/09 A3004 RMK AO2 SLP170 T01670094 10167 20122 51001
KSFO 211856Z 28017KT 10SM FEW012 18/09 A3003 RMK AO2 SLP170 T01780094
KSFO 211956Z 29017KT 10SM FEW013 19/10 A3002 RMK AO2 SLP166 T01890100
KSFO 212056Z 30017KT 10SM FEW014 20/10 A3000 RMK AO2 SLP160 T02000100 58010
KSFO 212156Z 29022KT 10SM FEW010 19/10 A3000 RMK AO2 SLP159 T01890100
KSFO 212256Z 29023KT 10SM CLR 19/10 A2998 RMK AO2 PK WND 30026/2253 SLP151 T01940100
KSFO 212356Z 28025G31KT 10SM FEW010 19/09 A2997 RMK AO2 PK WND 28031/2348 SLP149 T01890094 10206 20161 58011
KSFO 220056Z 28023KT 10SM FEW010 18/10 A2996 RMK AO2 PK WND 27030/0001 SLP146 T01830100
KSFO 220156Z 28021KT 10SM FEW013 17/10 A2996 RMK AO2 PK WND 28032/0106 SLP145 T01720100
KSFO 220256Z 29015KT 10SM FEW013 16/10 A2996 RMK AO2 SLP146 T01610100 55003



Page loaded:  03:10 UTC  |   08:10 PM Pacific  |   09:10 PM Mountain  |   10:10 PM Central  |   11:10 PM Eastern

 

ADVISORIES

FORECASTS

FORECASTS

OBSERVATIONS

USER TOOLS

ABOUT US